sensor_id;sensor_type;location;lat;lon;timestamp;temperature;humidity
1413;DHT22;701;52.526;13.408;2022-12-18T00:01:17;-2.50;30.90
1413;DHT22;701;52.526;13.408;2022-12-18T00:03:43;-2.50;30.90
1413;DHT22;701;52.526;13.408;2022-12-18T00:06:09;-2.50;30.90
1413;DHT22;701;52.526;13.408;2022-12-18T00:08:35;-2.50;30.90
1413;DHT22;701;52.526;13.408;2022-12-18T00:11:05;-2.50;30.90
1413;DHT22;701;52.526;13.408;2022-12-18T00:13:31;-2.50;30.90
1413;DHT22;701;52.526;13.408;2022-12-18T00:16:02;-2.40;31.00
1413;DHT22;701;52.526;13.408;2022-12-18T00:18:28;-2.40;31.00
1413;DHT22;701;52.526;13.408;2022-12-18T00:20:58;-2.40;31.00
1413;DHT22;701;52.526;13.408;2022-12-18T00:23:25;-2.40;31.00
1413;DHT22;701;52.526;13.408;2022-12-18T00:25:51;-2.40;30.50
1413;DHT22;701;52.526;13.408;2022-12-18T00:28:17;-2.40;31.10
1413;DHT22;701;52.526;13.408;2022-12-18T00:30:43;-2.50;30.00
1413;DHT22;701;52.526;13.408;2022-12-18T00:33:08;-2.40;30.00
1413;DHT22;701;52.526;13.408;2022-12-18T00:35:34;-2.50;30.00
1413;DHT22;701;52.526;13.408;2022-12-18T00:38:00;-2.50;30.10
1413;DHT22;701;52.526;13.408;2022-12-18T00:40:25;-2.50;30.20
1413;DHT22;701;52.526;13.408;2022-12-18T00:42:53;-2.50;30.00
1413;DHT22;701;52.526;13.408;2022-12-18T00:45:27;-2.50;30.00
1413;DHT22;701;52.526;13.408;2022-12-18T00:47:54;-2.40;30.10
1413;DHT22;701;52.526;13.408;2022-12-18T00:50:21;-2.50;29.80
1413;DHT22;701;52.526;13.408;2022-12-18T00:52:47;-2.50;30.00
1413;DHT22;701;52.526;13.408;2022-12-18T00:55:14;-2.50;30.00
1413;DHT22;701;52.526;13.408;2022-12-18T00:57:40;-2.50;30.00
1413;DHT22;701;52.526;13.408;2022-12-18T01:00:08;-2.50;29.90
1413;DHT22;701;52.526;13.408;2022-12-18T01:02:34;-2.60;29.80
1413;DHT22;701;52.526;13.408;2022-12-18T01:04:59;-2.60;29.80
1413;DHT22;701;52.526;13.408;2022-12-18T01:07:25;-2.60;29.70
1413;DHT22;701;52.526;13.408;2022-12-18T01:09:51;-2.60;29.60
1413;DHT22;701;52.526;13.408;2022-12-18T01:12:17;-2.60;29.50
1413;DHT22;701;52.526;13.408;2022-12-18T01:14:42;-2.50;29.60
1413;DHT22;701;52.526;13.408;2022-12-18T01:17:08;-2.60;29.30
1413;DHT22;701;52.526;13.408;2022-12-18T01:19:34;-2.60;29.40
1413;DHT22;701;52.526;13.408;2022-12-18T01:21:59;-2.60;29.50
1413;DHT22;701;52.526;13.408;2022-12-18T01:24:25;-2.60;29.50
1413;DHT22;701;52.526;13.408;2022-12-18T01:26:51;-2.50;29.60
1413;DHT22;701;52.526;13.408;2022-12-18T01:29:16;-2.60;29.60
1413;DHT22;701;52.526;13.408;2022-12-18T01:31:42;-2.50;29.70
1413;DHT22;701;52.526;13.408;2022-12-18T01:34:09;-2.50;29.60
1413;DHT22;701;52.526;13.408;2022-12-18T01:36:37;-2.50;29.30
1413;DHT22;701;52.526;13.408;2022-12-18T01:39:10;-2.50;29.40
1413;DHT22;701;52.526;13.408;2022-12-18T01:41:36;-2.60;29.10
1413;DHT22;701;52.526;13.408;2022-12-18T01:47:38;-2.60;29.30
1413;DHT22;701;52.526;13.408;2022-12-18T01:50:14;-2.60;29.20
1413;DHT22;701;52.526;13.408;2022-12-18T01:53:04;-2.60;29.30
1413;DHT22;701;52.526;13.408;2022-12-18T01:55:36;-2.60;29.20
1413;DHT22;701;52.526;13.408;2022-12-18T01:58:04;-2.60;29.20
1413;DHT22;701;52.526;13.408;2022-12-18T02:00:31;-2.70;29.00
1413;DHT22;701;52.526;13.408;2022-12-18T02:02:57;-2.70;29.20
1413;DHT22;701;52.526;13.408;2022-12-18T02:10:31;-2.80;29.10
1413;DHT22;701;52.526;13.408;2022-12-18T02:13:13;-2.90;29.00
1413;DHT22;701;52.526;13.408;2022-12-18T02:18:27;-2.90;29.20
1413;DHT22;701;52.526;13.408;2022-12-18T02:24:10;-3.00;29.40
1413;DHT22;701;52.526;13.408;2022-12-18T02:27:00;-3.00;29.60
1413;DHT22;701;52.526;13.408;2022-12-18T02:29:35;-3.00;29.40
1413;DHT22;701;52.526;13.408;2022-12-18T02:32:06;-3.00;29.60
1413;DHT22;701;52.526;13.408;2022-12-18T02:34:34;-3.00;29.50
1413;DHT22;701;52.526;13.408;2022-12-18T02:37:06;-3.00;29.60
1413;DHT22;701;52.526;13.408;2022-12-18T02:39:35;-3.00;29.50
1413;DHT22;701;52.526;13.408;2022-12-18T02:42:03;-3.00;29.40
1413;DHT22;701;52.526;13.408;2022-12-18T02:44:35;-3.00;29.40
1413;DHT22;701;52.526;13.408;2022-12-18T02:47:01;-3.10;29.40
1413;DHT22;701;52.526;13.408;2022-12-18T02:49:36;-3.10;29.40
1413;DHT22;701;52.526;13.408;2022-12-18T02:52:16;-3.10;29.10
1413;DHT22;701;52.526;13.408;2022-12-18T02:57:40;-3.20;29.80
1413;DHT22;701;52.526;13.408;2022-12-18T03:00:10;-3.20;29.40
1413;DHT22;701;52.526;13.408;2022-12-18T03:05:31;-3.30;29.60
1413;DHT22;701;52.526;13.408;2022-12-18T03:10:33;-3.30;29.50
1413;DHT22;701;52.526;13.408;2022-12-18T03:13:12;-3.30;29.60
1413;DHT22;701;52.526;13.408;2022-12-18T03:15:43;-3.30;29.60
1413;DHT22;701;52.526;13.408;2022-12-18T03:18:21;-3.30;29.60
1413;DHT22;701;52.526;13.408;2022-12-18T03:20:51;-3.30;29.60
1413;DHT22;701;52.526;13.408;2022-12-18T03:23:23;-3.30;29.60
1413;DHT22;701;52.526;13.408;2022-12-18T03:25:52;-3.30;29.70
1413;DHT22;701;52.526;13.408;2022-12-18T03:28:22;-3.30;29.60
1413;DHT22;701;52.526;13.408;2022-12-18T03:30:57;-3.20;29.70
1413;DHT22;701;52.526;13.408;2022-12-18T03:35:58;-3.20;29.70
1413;DHT22;701;52.526;13.408;2022-12-18T03:38:23;-3.20;29.70
1413;DHT22;701;52.526;13.408;2022-12-18T03:49:21;-3.20;29.70
1413;DHT22;701;52.526;13.408;2022-12-18T03:51:54;-3.20;29.70
1413;DHT22;701;52.526;13.408;2022-12-18T03:54:23;-3.20;29.60
1413;DHT22;701;52.526;13.408;2022-12-18T03:57:01;-3.20;29.60
1413;DHT22;701;52.526;13.408;2022-12-18T03:59:31;-3.20;29.40
1413;DHT22;701;52.526;13.408;2022-12-18T04:01:58;-3.20;29.30
1413;DHT22;701;52.526;13.408;2022-12-18T04:04:27;-3.20;29.40
1413;DHT22;701;52.526;13.408;2022-12-18T04:06:54;-3.10;29.40
1413;DHT22;701;52.526;13.408;2022-12-18T04:09:23;-3.10;29.10
1413;DHT22;701;52.526;13.408;2022-12-18T04:11:51;-3.20;29.10
1413;DHT22;701;52.526;13.408;2022-12-18T04:14:17;-3.20;29.10
1413;DHT22;701;52.526;13.408;2022-12-18T04:16:43;-3.20;29.10
1413;DHT22;701;52.526;13.408;2022-12-18T04:19:12;-3.20;29.10
1413;DHT22;701;52.526;13.408;2022-12-18T04:21:41;-3.20;29.00
1413;DHT22;701;52.526;13.408;2022-12-18T04:24:09;-3.20;29.10
1413;DHT22;701;52.526;13.408;2022-12-18T04:26:38;-3.20;29.10
1413;DHT22;701;52.526;13.408;2022-12-18T04:29:11;-3.20;29.00
1413;DHT22;701;52.526;13.408;2022-12-18T04:31:37;-3.20;28.80
1413;DHT22;701;52.526;13.408;2022-12-18T04:34:04;-3.20;28.90
1413;DHT22;701;52.526;13.408;2022-12-18T04:36:36;-3.20;28.70
1413;DHT22;701;52.526;13.408;2022-12-18T04:39:02;-3.30;28.90
1413;DHT22;701;52.526;13.408;2022-12-18T04:41:29;-3.30;28.90
1413;DHT22;701;52.526;13.408;2022-12-18T04:43:55;-3.30;28.80
1413;DHT22;701;52.526;13.408;2022-12-18T04:46:21;-3.30;28.90
1413;DHT22;701;52.526;13.408;2022-12-18T04:48:49;-3.40;28.70
1413;DHT22;701;52.526;13.408;2022-12-18T04:51:15;-3.40;29.00
1413;DHT22;701;52.526;13.408;2022-12-18T04:53:41;-3.40;29.00
1413;DHT22;701;52.526;13.408;2022-12-18T04:56:12;-3.40;29.20
1413;DHT22;701;52.526;13.408;2022-12-18T04:58:39;-3.50;29.10
1413;DHT22;701;52.526;13.408;2022-12-18T05:01:05;-3.50;29.20
1413;DHT22;701;52.526;13.408;2022-12-18T05:03:31;-3.50;29.40
1413;DHT22;701;52.526;13.408;2022-12-18T05:05:57;-3.50;29.50
1413;DHT22;701;52.526;13.408;2022-12-18T05:08:23;-3.50;29.60
1413;DHT22;701;52.526;13.408;2022-12-18T05:10:49;-3.50;29.40
1413;DHT22;701;52.526;13.408;2022-12-18T05:13:15;-3.50;29.40
1413;DHT22;701;52.526;13.408;2022-12-18T05:15:40;-3.40;29.30
1413;DHT22;701;52.526;13.408;2022-12-18T05:18:07;-3.40;29.30
1413;DHT22;701;52.526;13.408;2022-12-18T05:20:34;-3.40;29.20
1413;DHT22;701;52.526;13.408;2022-12-18T05:22:59;-3.50;29.20
1413;DHT22;701;52.526;13.408;2022-12-18T05:25:25;-3.40;29.20
1413;DHT22;701;52.526;13.408;2022-12-18T05:27:51;-3.50;29.10
1413;DHT22;701;52.526;13.408;2022-12-18T05:30:17;-3.50;29.20
1413;DHT22;701;52.526;13.408;2022-12-18T05:32:42;-3.40;29.30
1413;DHT22;701;52.526;13.408;2022-12-18T05:35:09;-3.40;29.10
1413;DHT22;701;52.526;13.408;2022-12-18T05:37:36;-3.40;28.80
1413;DHT22;701;52.526;13.408;2022-12-18T05:40:03;-3.40;28.60
1413;DHT22;701;52.526;13.408;2022-12-18T05:42:29;-3.40;28.70
1413;DHT22;701;52.526;13.408;2022-12-18T05:44:55;-3.50;28.70
1413;DHT22;701;52.526;13.408;2022-12-18T05:47:21;-3.50;28.70
1413;DHT22;701;52.526;13.408;2022-12-18T05:49:47;-3.50;28.90
1413;DHT22;701;52.526;13.408;2022-12-18T05:52:12;-3.60;29.00
1413;DHT22;701;52.526;13.408;2022-12-18T05:54:38;-3.60;29.30
1413;DHT22;701;52.526;13.408;2022-12-18T05:57:05;-3.60;29.60
1413;DHT22;701;52.526;13.408;2022-12-18T05:59:30;-3.60;29.50
1413;DHT22;701;52.526;13.408;2022-12-18T06:01:56;-3.60;29.50
1413;DHT22;701;52.526;13.408;2022-12-18T06:04:22;-3.50;29.60
1413;DHT22;701;52.526;13.408;2022-12-18T06:06:48;-3.50;29.60
1413;DHT22;701;52.526;13.408;2022-12-18T06:09:13;-3.40;29.60
1413;DHT22;701;52.526;13.408;2022-12-18T06:11:39;-3.40;29.60
1413;DHT22;701;52.526;13.408;2022-12-18T06:14:06;-3.40;29.50
1413;DHT22;701;52.526;13.408;2022-12-18T06:16:32;-3.40;29.60
1413;DHT22;701;52.526;13.408;2022-12-18T06:18:59;-3.40;29.40
1413;DHT22;701;52.526;13.408;2022-12-18T06:21:25;-3.40;29.40
1413;DHT22;701;52.526;13.408;2022-12-18T06:23:51;-3.40;29.50
1413;DHT22;701;52.526;13.408;2022-12-18T06:26:17;-3.40;29.50
1413;DHT22;701;52.526;13.408;2022-12-18T06:28:43;-3.40;29.40
1413;DHT22;701;52.526;13.408;2022-12-18T06:31:09;-3.40;29.30
1413;DHT22;701;52.526;13.408;2022-12-18T06:33:35;-3.40;29.30
1413;DHT22;701;52.526;13.408;2022-12-18T06:36:09;-3.40;29.50
1413;DHT22;701;52.526;13.408;2022-12-18T06:38:36;-3.40;29.50
1413;DHT22;701;52.526;13.408;2022-12-18T06:41:13;-3.40;29.60
1413;DHT22;701;52.526;13.408;2022-12-18T06:43:39;-3.40;29.50
1413;DHT22;701;52.526;13.408;2022-12-18T06:46:05;-3.40;29.50
1413;DHT22;701;52.526;13.408;2022-12-18T06:48:31;-3.40;29.60
1413;DHT22;701;52.526;13.408;2022-12-18T06:50:57;-3.40;29.60
1413;DHT22;701;52.526;13.408;2022-12-18T06:53:22;-3.40;29.60
1413;DHT22;701;52.526;13.408;2022-12-18T06:55:48;-3.40;29.70
1413;DHT22;701;52.526;13.408;2022-12-18T06:58:14;-3.40;29.60
1413;DHT22;701;52.526;13.408;2022-12-18T07:00:40;-3.30;29.60
1413;DHT22;701;52.526;13.408;2022-12-18T07:03:06;-3.30;29.60
1413;DHT22;701;52.526;13.408;2022-12-18T07:05:31;-3.30;29.60
1413;DHT22;701;52.526;13.408;2022-12-18T07:07:58;-3.30;29.60
1413;DHT22;701;52.526;13.408;2022-12-18T07:10:23;-3.20;29.70
1413;DHT22;701;52.526;13.408;2022-12-18T07:12:49;-3.20;29.60
1413;DHT22;701;52.526;13.408;2022-12-18T07:15:15;-3.20;29.60
1413;DHT22;701;52.526;13.408;2022-12-18T07:17:41;-3.20;29.50
1413;DHT22;701;52.526;13.408;2022-12-18T07:20:07;-3.20;29.70
1413;DHT22;701;52.526;13.408;2022-12-18T07:22:33;-3.10;29.60
1413;DHT22;701;52.526;13.408;2022-12-18T07:24:59;-3.20;29.70
1413;DHT22;701;52.526;13.408;2022-12-18T07:27:24;-3.10;30.00
1413;DHT22;701;52.526;13.408;2022-12-18T07:29:50;-3.10;29.80
1413;DHT22;701;52.526;13.408;2022-12-18T07:32:16;-3.00;29.80
1413;DHT22;701;52.526;13.408;2022-12-18T07:34:42;-3.00;29.70
1413;DHT22;701;52.526;13.408;2022-12-18T07:37:07;-3.00;29.80
1413;DHT22;701;52.526;13.408;2022-12-18T07:39:33;-2.90;29.60
1413;DHT22;701;52.526;13.408;2022-12-18T07:41:59;-2.90;29.80
1413;DHT22;701;52.526;13.408;2022-12-18T07:44:43;-3.00;29.40
1413;DHT22;701;52.526;13.408;2022-12-18T07:47:09;-3.00;29.30
1413;DHT22;701;52.526;13.408;2022-12-18T07:49:35;-3.00;29.50
1413;DHT22;701;52.526;13.408;2022-12-18T07:52:00;-3.00;29.40
1413;DHT22;701;52.526;13.408;2022-12-18T07:54:27;-3.00;29.50
1413;DHT22;701;52.526;13.408;2022-12-18T07:56:52;-3.00;29.60
1413;DHT22;701;52.526;13.408;2022-12-18T07:59:18;-2.90;29.50
1413;DHT22;701;52.526;13.408;2022-12-18T08:01:44;-2.90;29.30
1413;DHT22;701;52.526;13.408;2022-12-18T08:04:10;-2.90;29.10
1413;DHT22;701;52.526;13.408;2022-12-18T08:06:36;-2.90;29.20
1413;DHT22;701;52.526;13.408;2022-12-18T08:09:02;-2.90;29.10
1413;DHT22;701;52.526;13.408;2022-12-18T08:11:28;-2.90;29.00
1413;DHT22;701;52.526;13.408;2022-12-18T08:13:54;-2.90;28.90
1413;DHT22;701;52.526;13.408;2022-12-18T08:16:21;-2.80;28.90
1413;DHT22;701;52.526;13.408;2022-12-18T08:18:47;-2.80;28.50
1413;DHT22;701;52.526;13.408;2022-12-18T08:21:22;-2.80;28.20
1413;DHT22;701;52.526;13.408;2022-12-18T08:23:49;-2.70;28.10
1413;DHT22;701;52.526;13.408;2022-12-18T08:26:15;-2.70;27.90
1413;DHT22;701;52.526;13.408;2022-12-18T08:28:42;-2.70;28.30
1413;DHT22;701;52.526;13.408;2022-12-18T08:31:09;-2.70;27.90
1413;DHT22;701;52.526;13.408;2022-12-18T08:33:35;-2.60;28.10
1413;DHT22;701;52.526;13.408;2022-12-18T08:36:05;-2.60;28.10
1413;DHT22;701;52.526;13.408;2022-12-18T08:38:32;-2.50;27.40
1413;DHT22;701;52.526;13.408;2022-12-18T08:41:06;-2.50;27.40
1413;DHT22;701;52.526;13.408;2022-12-18T08:43:31;-2.50;27.40
1413;DHT22;701;52.526;13.408;2022-12-18T08:46:17;-2.40;27.30
1413;DHT22;701;52.526;13.408;2022-12-18T08:48:43;-2.40;27.00
1413;DHT22;701;52.526;13.408;2022-12-18T08:51:09;-2.30;26.70
1413;DHT22;701;52.526;13.408;2022-12-18T08:53:35;-2.30;26.40
1413;DHT22;701;52.526;13.408;2022-12-18T08:56:02;-2.30;26.40
1413;DHT22;701;52.526;13.408;2022-12-18T08:58:28;-2.30;26.20
1413;DHT22;701;52.526;13.408;2022-12-18T09:00:53;-2.20;27.20
1413;DHT22;701;52.526;13.408;2022-12-18T09:03:19;-2.20;27.20
1413;DHT22;701;52.526;13.408;2022-12-18T09:05:48;-2.20;27.60
1413;DHT22;701;52.526;13.408;2022-12-18T09:08:14;-2.10;27.00
1413;DHT22;701;52.526;13.408;2022-12-18T09:10:49;-2.10;26.70
1413;DHT22;701;52.526;13.408;2022-12-18T09:13:16;-2.10;26.30
1413;DHT22;701;52.526;13.408;2022-12-18T09:15:50;-2.00;26.60
1413;DHT22;701;52.526;13.408;2022-12-18T09:18:18;-2.00;26.50
1413;DHT22;701;52.526;13.408;2022-12-18T09:20:44;-1.90;26.20
1413;DHT22;701;52.526;13.408;2022-12-18T09:23:11;-1.80;26.00
1413;DHT22;701;52.526;13.408;2022-12-18T09:25:37;-1.80;25.90
1413;DHT22;701;52.526;13.408;2022-12-18T09:28:05;-1.80;25.80
1413;DHT22;701;52.526;13.408;2022-12-18T09:30:31;-1.80;26.10
1413;DHT22;701;52.526;13.408;2022-12-18T09:32:59;-1.70;25.90
1413;DHT22;701;52.526;13.408;2022-12-18T09:35:25;-1.70;25.80
1413;DHT22;701;52.526;13.408;2022-12-18T09:37:51;-1.70;25.70
1413;DHT22;701;52.526;13.408;2022-12-18T09:40:19;-1.70;25.70
1413;DHT22;701;52.526;13.408;2022-12-18T09:42:51;-1.60;25.50
1413;DHT22;701;52.526;13.408;2022-12-18T09:45:19;-1.60;25.70
1413;DHT22;701;52.526;13.408;2022-12-18T09:47:47;-1.50;25.60
1413;DHT22;701;52.526;13.408;2022-12-18T09:50:53;-1.50;25.70
1413;DHT22;701;52.526;13.408;2022-12-18T09:53:25;-1.40;25.60
1413;DHT22;701;52.526;13.408;2022-12-18T09:55:52;-1.40;25.60
1413;DHT22;701;52.526;13.408;2022-12-18T09:58:29;-1.30;25.90
1413;DHT22;701;52.526;13.408;2022-12-18T10:00:56;-1.30;26.10
1413;DHT22;701;52.526;13.408;2022-12-18T10:03:22;-1.30;26.00
1413;DHT22;701;52.526;13.408;2022-12-18T10:14:05;-1.20;27.00
1413;DHT22;701;52.526;13.408;2022-12-18T10:24:55;-1.20;26.90
1413;DHT22;701;52.526;13.408;2022-12-18T10:27:26;-1.20;27.00
1413;DHT22;701;52.526;13.408;2022-12-18T10:29:52;-1.10;27.10
1413;DHT22;701;52.526;13.408;2022-12-18T10:32:28;-1.00;27.00
1413;DHT22;701;52.526;13.408;2022-12-18T10:34:56;-1.00;26.70
1413;DHT22;701;52.526;13.408;2022-12-18T10:37:26;-0.90;26.80
1413;DHT22;701;52.526;13.408;2022-12-18T10:40:12;-0.90;26.80
1413;DHT22;701;52.526;13.408;2022-12-18T10:42:38;-0.80;26.40
1413;DHT22;701;52.526;13.408;2022-12-18T10:45:11;-0.80;26.50
1413;DHT22;701;52.526;13.408;2022-12-18T10:47:43;-0.80;26.60
1413;DHT22;701;52.526;13.408;2022-12-18T10:50:24;-0.70;26.60
1413;DHT22;701;52.526;13.408;2022-12-18T10:52:55;-0.60;26.50
1413;DHT22;701;52.526;13.408;2022-12-18T10:55:23;-0.60;26.50
1413;DHT22;701;52.526;13.408;2022-12-18T10:57:51;-0.50;26.20
1413;DHT22;701;52.526;13.408;2022-12-18T11:02:48;-0.50;25.70
1413;DHT22;701;52.526;13.408;2022-12-18T11:05:30;-0.50;25.70
1413;DHT22;701;52.526;13.408;2022-12-18T11:08:10;-0.40;25.60
1413;DHT22;701;52.526;13.408;2022-12-18T11:10:47;-0.50;26.00
1413;DHT22;701;52.526;13.408;2022-12-18T11:13:18;-0.50;26.20
1413;DHT22;701;52.526;13.408;2022-12-18T11:15:46;-0.50;26.30
1413;DHT22;701;52.526;13.408;2022-12-18T11:18:34;-0.50;26.30
1413;DHT22;701;52.526;13.408;2022-12-18T11:21:09;-0.50;26.40
1413;DHT22;701;52.526;13.408;2022-12-18T11:23:36;-0.50;26.50
1413;DHT22;701;52.526;13.408;2022-12-18T11:26:04;-0.50;26.60
1413;DHT22;701;52.526;13.408;2022-12-18T11:28:49;-0.40;26.70
1413;DHT22;701;52.526;13.408;2022-12-18T11:31:27;-0.40;26.60
1413;DHT22;701;52.526;13.408;2022-12-18T11:36:42;-0.40;26.10
1413;DHT22;701;52.526;13.408;2022-12-18T11:39:18;-0.40;25.80
1413;DHT22;701;52.526;13.408;2022-12-18T11:41:50;-0.30;25.90
1413;DHT22;701;52.526;13.408;2022-12-18T11:47:34;-0.40;25.50
1413;DHT22;701;52.526;13.408;2022-12-18T11:50:17;-0.50;25.80
1413;DHT22;701;52.526;13.408;2022-12-18T11:52:44;-0.50;26.00
1413;DHT22;701;52.526;13.408;2022-12-18T11:55:11;-0.50;26.00
1413;DHT22;701;52.526;13.408;2022-12-18T12:00:22;-0.60;26.10
1413;DHT22;701;52.526;13.408;2022-12-18T12:05:44;-0.70;26.30
1413;DHT22;701;52.526;13.408;2022-12-18T12:08:26;-0.70;26.40
1413;DHT22;701;52.526;13.408;2022-12-18T12:11:17;-0.70;26.20
1413;DHT22;701;52.526;13.408;2022-12-18T12:16:51;-0.70;26.30
1413;DHT22;701;52.526;13.408;2022-12-18T12:19:52;-0.70;26.30
1413;DHT22;701;52.526;13.408;2022-12-18T12:22:44;-0.70;26.20
1413;DHT22;701;52.526;13.408;2022-12-18T12:31:28;-0.70;26.40
1413;DHT22;701;52.526;13.408;2022-12-18T12:37:21;-0.70;26.40
1413;DHT22;701;52.526;13.408;2022-12-18T12:39:51;-0.70;26.40
1413;DHT22;701;52.526;13.408;2022-12-18T12:42:39;-0.70;26.40
1413;DHT22;701;52.526;13.408;2022-12-18T12:45:34;-0.70;26.50
1413;DHT22;701;52.526;13.408;2022-12-18T12:48:02;-0.60;26.60
1413;DHT22;701;52.526;13.408;2022-12-18T12:54:00;-0.60;26.60
1413;DHT22;701;52.526;13.408;2022-12-18T12:56:39;-0.60;26.70
1413;DHT22;701;52.526;13.408;2022-12-18T13:13:09;-0.80;26.90
1413;DHT22;701;52.526;13.408;2022-12-18T13:18:05;-1.00;27.30
1413;DHT22;701;52.526;13.408;2022-12-18T13:20:45;-0.90;27.50
1413;DHT22;701;52.526;13.408;2022-12-18T13:25:50;-0.80;27.30
1413;DHT22;701;52.526;13.408;2022-12-18T13:28:21;-0.80;27.10
1413;DHT22;701;52.526;13.408;2022-12-18T13:30:57;-0.80;26.90
1413;DHT22;701;52.526;13.408;2022-12-18T13:38:46;-0.80;27.20
1413;DHT22;701;52.526;13.408;2022-12-18T13:43:52;-0.80;27.40
1413;DHT22;701;52.526;13.408;2022-12-18T13:46:42;-0.70;27.50
1413;DHT22;701;52.526;13.408;2022-12-18T13:51:44;-0.80;27.50
1413;DHT22;701;52.526;13.408;2022-12-18T13:54:25;-0.80;27.60
1413;DHT22;701;52.526;13.408;2022-12-18T13:56:54;-0.80;27.40
1413;DHT22;701;52.526;13.408;2022-12-18T14:04:35;-1.00;27.40
1413;DHT22;701;52.526;13.408;2022-12-18T14:07:04;-1.10;27.60
1413;DHT22;701;52.526;13.408;2022-12-18T14:09:35;-1.10;27.70
1413;DHT22;701;52.526;13.408;2022-12-18T14:12:02;-1.10;27.70
1413;DHT22;701;52.526;13.408;2022-12-18T14:14:49;-1.10;28.00
1413;DHT22;701;52.526;13.408;2022-12-18T14:17:17;-1.20;28.30
1413;DHT22;701;52.526;13.408;2022-12-18T14:19:48;-1.20;28.20
1413;DHT22;701;52.526;13.408;2022-12-18T14:22:18;-1.20;28.20
1413;DHT22;701;52.526;13.408;2022-12-18T14:24:45;-1.20;28.20
1413;DHT22;701;52.526;13.408;2022-12-18T14:27:23;-1.20;28.40
1413;DHT22;701;52.526;13.408;2022-12-18T14:29:50;-1.30;28.50
1413;DHT22;701;52.526;13.408;2022-12-18T14:32:20;-1.20;28.70
1413;DHT22;701;52.526;13.408;2022-12-18T14:34:50;-1.20;28.80
1413;DHT22;701;52.526;13.408;2022-12-18T14:37:20;-1.20;28.80
1413;DHT22;701;52.526;13.408;2022-12-18T14:40:01;-1.20;28.80
1413;DHT22;701;52.526;13.408;2022-12-18T14:42:30;-1.20;28.90
1413;DHT22;701;52.526;13.408;2022-12-18T14:45:38;-1.20;28.90
1413;DHT22;701;52.526;13.408;2022-12-18T14:50:36;-1.30;29.00
1413;DHT22;701;52.526;13.408;2022-12-18T14:53:03;-1.30;29.20
1413;DHT22;701;52.526;13.408;2022-12-18T14:55:28;-1.40;29.10
1413;DHT22;701;52.526;13.408;2022-12-18T14:57:58;-1.50;29.30
1413;DHT22;701;52.526;13.408;2022-12-18T15:00:25;-1.60;29.50
1413;DHT22;701;52.526;13.408;2022-12-18T15:02:55;-1.60;29.60
1413;DHT22;701;52.526;13.408;2022-12-18T15:05:26;-1.70;29.90
1413;DHT22;701;52.526;13.408;2022-12-18T15:07:55;-1.70;29.90
1413;DHT22;701;52.526;13.408;2022-12-18T15:10:29;-1.70;30.00
1413;DHT22;701;52.526;13.408;2022-12-18T15:23:38;-1.60;29.70
1413;DHT22;701;52.526;13.408;2022-12-18T15:26:12;-1.60;29.60
1413;DHT22;701;52.526;13.408;2022-12-18T15:36:14;-1.50;29.50
1413;DHT22;701;52.526;13.408;2022-12-18T15:38:40;-1.60;29.40
1413;DHT22;701;52.526;13.408;2022-12-18T15:41:12;-1.60;29.50
1413;DHT22;701;52.526;13.408;2022-12-18T15:43:38;-1.70;29.80
1413;DHT22;701;52.526;13.408;2022-12-18T15:46:06;-1.70;29.90
1413;DHT22;701;52.526;13.408;2022-12-18T15:48:38;-1.80;29.80
1413;DHT22;701;52.526;13.408;2022-12-18T15:51:07;-1.80;30.00
1413;DHT22;701;52.526;13.408;2022-12-18T15:53:35;-1.70;30.00
1413;DHT22;701;52.526;13.408;2022-12-18T15:56:01;-1.70;30.20
1413;DHT22;701;52.526;13.408;2022-12-18T15:58:45;-1.70;30.00
1413;DHT22;701;52.526;13.408;2022-12-18T16:01:25;-1.70;30.00
1413;DHT22;701;52.526;13.408;2022-12-18T16:03:51;-1.70;30.20
1413;DHT22;701;52.526;13.408;2022-12-18T16:06:17;-1.70;30.20
1413;DHT22;701;52.526;13.408;2022-12-18T16:08:43;-1.60;30.00
1413;DHT22;701;52.526;13.408;2022-12-18T16:13:45;-1.70;30.00
1413;DHT22;701;52.526;13.408;2022-12-18T16:16:11;-1.80;30.00
1413;DHT22;701;52.526;13.408;2022-12-18T16:18:36;-1.80;30.00
1413;DHT22;701;52.526;13.408;2022-12-18T16:21:02;-1.80;30.00
1413;DHT22;701;52.526;13.408;2022-12-18T16:23:28;-1.90;29.60
1413;DHT22;701;52.526;13.408;2022-12-18T16:25:54;-1.90;29.90
1413;DHT22;701;52.526;13.408;2022-12-18T16:28:20;-1.90;29.90
1413;DHT22;701;52.526;13.408;2022-12-18T16:30:46;-1.90;30.00
1413;DHT22;701;52.526;13.408;2022-12-18T16:33:12;-1.90;30.00
1413;DHT22;701;52.526;13.408;2022-12-18T16:35:38;-1.90;30.00
1413;DHT22;701;52.526;13.408;2022-12-18T16:38:04;-1.90;30.00
1413;DHT22;701;52.526;13.408;2022-12-18T16:40:31;-1.80;30.20
1413;DHT22;701;52.526;13.408;2022-12-18T16:42:57;-1.80;30.20
1413;DHT22;701;52.526;13.408;2022-12-18T16:45:23;-1.90;30.30
1413;DHT22;701;52.526;13.408;2022-12-18T16:47:51;-1.80;30.20
1413;DHT22;701;52.526;13.408;2022-12-18T16:50:17;-1.80;30.00
1413;DHT22;701;52.526;13.408;2022-12-18T16:52:43;-1.90;30.00
1413;DHT22;701;52.526;13.408;2022-12-18T16:55:09;-1.90;30.10
1413;DHT22;701;52.526;13.408;2022-12-18T16:57:35;-1.90;29.80
1413;DHT22;701;52.526;13.408;2022-12-18T17:00:00;-1.90;29.80
1413;DHT22;701;52.526;13.408;2022-12-18T17:02:27;-1.90;29.70
1413;DHT22;701;52.526;13.408;2022-12-18T17:04:57;-1.90;29.70
1413;DHT22;701;52.526;13.408;2022-12-18T17:07:24;-2.00;29.80
1413;DHT22;701;52.526;13.408;2022-12-18T17:09:50;-2.00;30.00
1413;DHT22;701;52.526;13.408;2022-12-18T17:12:16;-2.10;30.20
1413;DHT22;701;52.526;13.408;2022-12-18T17:14:42;-2.20;30.50
1413;DHT22;701;52.526;13.408;2022-12-18T17:17:08;-2.30;30.80
1413;DHT22;701;52.526;13.408;2022-12-18T17:19:34;-2.30;31.10
1413;DHT22;701;52.526;13.408;2022-12-18T17:21:59;-2.40;31.00
1413;DHT22;701;52.526;13.408;2022-12-18T17:24:25;-2.50;31.30
1413;DHT22;701;52.526;13.408;2022-12-18T17:26:51;-2.60;31.90
1413;DHT22;701;52.526;13.408;2022-12-18T17:29:18;-2.60;32.20
1413;DHT22;701;52.526;13.408;2022-12-18T17:31:45;-2.70;32.50
1413;DHT22;701;52.526;13.408;2022-12-18T17:34:12;-2.70;33.10
1413;DHT22;701;52.526;13.408;2022-12-18T17:36:38;-2.80;32.90
1413;DHT22;701;52.526;13.408;2022-12-18T17:39:04;-2.80;33.20
1413;DHT22;701;52.526;13.408;2022-12-18T17:41:31;-2.90;33.40
1413;DHT22;701;52.526;13.408;2022-12-18T17:43:59;-2.90;33.40
1413;DHT22;701;52.526;13.408;2022-12-18T17:46:26;-2.90;33.40
1413;DHT22;701;52.526;13.408;2022-12-18T17:48:57;-2.90;33.70
1413;DHT22;701;52.526;13.408;2022-12-18T17:51:23;-3.00;33.80
1413;DHT22;701;52.526;13.408;2022-12-18T17:53:49;-3.00;33.80
1413;DHT22;701;52.526;13.408;2022-12-18T17:56:17;-3.00;34.50
1413;DHT22;701;52.526;13.408;2022-12-18T17:58:43;-3.00;34.60
1413;DHT22;701;52.526;13.408;2022-12-18T18:01:14;-3.00;34.60
1413;DHT22;701;52.526;13.408;2022-12-18T18:03:41;-3.00;34.70
1413;DHT22;701;52.526;13.408;2022-12-18T18:06:07;-3.00;34.70
1413;DHT22;701;52.526;13.408;2022-12-18T18:08:33;-3.00;34.80
1413;DHT22;701;52.526;13.408;2022-12-18T18:11:04;-3.10;34.70
1413;DHT22;701;52.526;13.408;2022-12-18T18:13:50;-3.10;34.60
1413;DHT22;701;52.526;13.408;2022-12-18T18:16:35;-3.00;34.60
1413;DHT22;701;52.526;13.408;2022-12-18T18:19:05;-3.00;34.50
1413;DHT22;701;52.526;13.408;2022-12-18T18:21:32;-3.10;34.50
1413;DHT22;701;52.526;13.408;2022-12-18T18:24:00;-3.10;34.30
1413;DHT22;701;52.526;13.408;2022-12-18T18:26:27;-3.10;34.70
1413;DHT22;701;52.526;13.408;2022-12-18T18:28:56;-3.10;34.70
1413;DHT22;701;52.526;13.408;2022-12-18T18:31:24;-3.20;34.60
1413;DHT22;701;52.526;13.408;2022-12-18T18:33:50;-3.20;35.30